createdAt,value
2018-04-09T00:00:24.435Z,93.41
2018-04-09T00:01:24.722Z,93.7
2018-04-09T00:02:24.746Z,93.51
2018-04-09T00:03:24.497Z,93.98
2018-04-09T00:04:39.438Z,93.79
2018-04-09T00:05:24.797Z,93.89
2018-04-09T00:06:24.818Z,93.27
2018-04-09T00:07:24.837Z,93.27
2018-04-09T00:08:24.859Z,92.6
2018-04-09T00:09:24.620Z,92.22
2018-04-09T00:10:24.899Z,92.69
2018-04-09T00:11:24.924Z,92.89
2018-04-09T00:12:24.681Z,92.41
2018-04-09T00:13:24.961Z,92.46
2018-04-09T00:14:24.979Z,92.84
2018-04-09T00:15:25.005Z,92.94
2018-04-09T00:16:25.024Z,92.84
2018-04-09T00:17:24.783Z,93.6
2018-04-09T00:18:25.061Z,93.51
2018-04-09T00:19:25.083Z,93.7
2018-04-09T00:20:39.762Z,94.17
2018-04-09T00:21:25.123Z,94.37
2018-04-09T00:22:25.143Z,94.37
2018-04-09T00:23:25.164Z,94.56
2018-04-09T00:24:24.926Z,94.84
2018-04-09T00:25:24.948Z,94.84
2018-04-09T00:26:25.227Z,94.27
2018-04-09T00:27:24.987Z,94.74
2018-04-09T00:28:25.273Z,94.17
2018-04-09T00:29:25.312Z,93.7
2018-04-09T00:30:25.307Z,93.51
2018-04-09T00:31:25.341Z,93.32
2018-04-09T00:32:25.347Z,93.41
2018-04-09T00:33:25.366Z,93.6
2018-04-09T00:34:25.393Z,93.51
2018-04-09T00:35:25.150Z,93.32
2018-04-09T00:36:40.088Z,93.41
2018-04-09T00:37:25.452Z,93.6
2018-04-09T00:38:25.469Z,93.7
2018-04-09T00:39:25.524Z,94.17
2018-04-09T00:40:25.509Z,94.74
2018-04-09T00:41:25.529Z,94.37
2018-04-09T00:42:25.550Z,94.74
2018-04-09T00:43:25.571Z,94.74
2018-04-09T00:44:25.642Z,95.32
2018-04-09T00:45:25.611Z,95.03
2018-04-09T00:46:25.635Z,95.12
2018-04-09T00:47:25.652Z,95.41
2018-04-09T00:48:25.672Z,95.32
2018-04-09T00:49:25.696Z,95.94
2018-04-09T00:50:25.715Z,95.94
2018-04-09T00:51:25.473Z,96.41
2018-04-09T00:52:40.412Z,96.6
2018-04-09T00:53:25.514Z,96.98
2018-04-09T00:54:25.793Z,97.27
2018-04-09T00:55:25.554Z,96.7
2018-04-09T00:56:25.840Z,96.79
2018-04-09T00:57:25.857Z,96.12
2018-04-09T00:58:25.873Z,96.98
2018-04-09T01:00:25.917Z,96.51
2018-04-09T01:01:25.937Z,96.31
2018-04-09T01:02:25.694Z,96.22
2018-04-09T01:03:25.974Z,96.89
2018-04-09T01:04:25.997Z,97.17
2018-04-09T01:05:26.016Z,97.27
2018-04-09T01:06:26.041Z,97.74
2018-04-09T01:07:40.716Z,97.93
2018-04-09T01:08:26.076Z,97.98
2018-04-09T01:09:26.101Z,97.84
2018-04-09T01:10:26.115Z,97.93
2018-04-09T01:11:26.136Z,97.98
2018-04-09T01:12:26.156Z,97.88
2018-04-09T01:13:26.176Z,98.13
2018-04-09T01:14:26.194Z,97.98
2018-04-09T01:15:25.957Z,98.13
2018-04-09T01:16:26.234Z,97.93
2018-04-09T01:17:26.255Z,97.84
2018-04-09T01:18:26.274Z,98.6
2018-04-09T01:19:26.296Z,98.69
2018-04-09T01:20:26.056Z,98.32
2018-04-09T01:21:26.335Z,98.6
2018-04-09T01:22:26.356Z,98.6
2018-04-09T01:24:26.398Z,98.41
2018-04-09T01:25:26.419Z,98.6
2018-04-09T01:26:26.177Z,99.22
2018-04-09T01:27:26.195Z,99.6
2018-04-09T01:28:26.475Z,99.5
2018-04-09T01:30:26.513Z,99.41
2018-04-09T01:31:26.538Z,99.99
2018-04-09T01:32:26.558Z,99.79
2018-04-09T01:33:26.572Z,99.41
2018-04-09T01:34:26.596Z,99.6
2018-04-09T01:35:26.613Z,99.79
2018-04-09T01:36:26.634Z,99.5
2018-04-09T01:37:26.660Z,99.79
2018-04-09T01:38:26.413Z,99.99
2018-04-09T01:39:41.351Z,99.99
2018-04-09T01:40:26.454Z,99.99
2018-04-09T01:41:26.732Z,99.99
2018-04-09T01:42:26.755Z,99.99
2018-04-09T01:43:26.770Z,99.99
2018-04-09T01:44:26.792Z,99.99
2018-04-09T01:45:26.815Z,99.99
2018-04-09T01:46:26.835Z,99.99
2018-04-09T01:47:26.592Z,99.99
2018-04-09T01:48:26.871Z,99.99
2018-04-09T01:49:26.633Z,99.99
2018-04-09T01:50:26.911Z,99.99
2018-04-09T01:51:26.930Z,99.99
2018-04-09T01:52:26.953Z,99.99
2018-04-09T01:53:26.967Z,99.99
2018-04-09T01:54:26.987Z,99.99
2018-04-09T01:55:41.668Z,99.99
2018-04-09T01:56:26.770Z,99.99
2018-04-09T01:57:26.788Z,99.99
2018-04-09T01:58:27.068Z,99.99
2018-04-09T01:59:27.101Z,99.99
2018-04-09T02:00:26.847Z,99.99
2018-04-09T02:01:26.868Z,99.99
2018-04-09T02:03:27.165Z,99.99
2018-04-09T02:04:26.930Z,99.99
2018-04-09T02:05:27.205Z,99.99
2018-04-09T02:06:27.230Z,99.99
2018-04-09T02:07:27.243Z,99.99
2018-04-09T02:08:27.262Z,99.99
2018-04-09T02:09:27.296Z,99.99
2018-04-09T02:10:27.308Z,99.99
2018-04-09T02:11:41.980Z,99.99
2018-04-09T02:12:27.341Z,99.99
2018-04-09T02:13:27.103Z,99.99
2018-04-09T02:14:27.389Z,99.99
2018-04-09T02:15:27.400Z,99.99
2018-04-09T02:16:27.418Z,99.99
2018-04-09T02:17:27.181Z,99.99
2018-04-09T02:18:27.458Z,99.99
2018-04-09T02:19:27.219Z,99.99
2018-04-09T02:20:27.496Z,99.99
2018-04-09T02:21:27.522Z,99.99
2018-04-09T02:22:27.535Z,99.99
2018-04-09T02:23:27.296Z,99.99
2018-04-09T02:24:27.611Z,99.99
2018-04-09T02:25:27.594Z,99.99
2018-04-09T02:26:27.613Z,99.99
2018-04-09T02:27:42.292Z,99.99
2018-04-09T02:28:27.658Z,99.99
2018-04-09T02:29:27.676Z,99.99
2018-04-09T02:30:27.700Z,99.99
2018-04-09T02:32:27.472Z,99.99
2018-04-09T02:33:27.748Z,99.99
2018-04-09T02:34:27.511Z,99.99
2018-04-09T02:35:27.788Z,99.99
2018-04-09T02:36:27.808Z,99.99
2018-04-09T02:37:27.829Z,99.99
2018-04-09T02:38:27.872Z,99.99
2018-04-09T02:39:27.870Z,99.99
2018-04-09T02:40:27.890Z,99.99
2018-04-09T02:42:42.583Z,99.99
2018-04-09T02:43:27.957Z,99.99
2018-04-09T02:44:28.010Z,99.99
2018-04-09T02:45:28.010Z,99.99
2018-04-09T02:46:28.008Z,99.99
2018-04-09T02:47:28.023Z,99.99
2018-04-09T02:48:28.042Z,99.99
2018-04-09T02:49:27.800Z,99.99
2018-04-09T02:51:28.101Z,99.99
2018-04-09T02:52:28.116Z,99.99
2018-04-09T02:53:28.139Z,99.99
2018-04-09T02:54:27.897Z,99.99
2018-04-09T02:55:27.915Z,99.99
2018-04-09T02:56:28.196Z,99.99
2018-04-09T02:57:27.955Z,99.99
2018-04-09T02:58:27.974Z,99.99
2018-04-09T02:59:27.991Z,99.99
2018-04-09T03:00:28.271Z,99.99
2018-04-09T03:01:28.303Z,99.99
2018-04-09T03:02:28.324Z,99.99
2018-04-09T03:04:28.386Z,99.99
2018-04-09T03:06:28.383Z,99.99
2018-04-09T03:07:28.413Z,99.99
2018-04-09T03:08:28.424Z,99.99
2018-04-09T03:09:28.526Z,99.99
2018-04-09T03:10:28.463Z,99.99
2018-04-09T03:11:28.480Z,99.99
2018-04-09T03:12:28.498Z,99.99
2018-04-09T03:13:28.519Z,99.99
2018-04-09T03:14:43.195Z,99.99
2018-04-09T03:15:28.556Z,99.99
2018-04-09T03:16:28.574Z,99.99
2018-04-09T03:17:28.590Z,99.99
2018-04-09T03:18:28.620Z,99.99
2018-04-09T03:19:28.630Z,99.99
2018-04-09T03:20:28.652Z,99.99
2018-04-09T03:23:28.708Z,99.99
2018-04-09T03:24:28.726Z,99.99
2018-04-09T03:25:28.744Z,99.99
2018-04-09T03:26:28.763Z,99.99
2018-04-09T03:27:28.526Z,99.99
2018-04-09T03:28:28.803Z,99.99
2018-04-09T03:29:28.819Z,99.99
2018-04-09T03:30:43.499Z,99.99
2018-04-09T03:31:28.868Z,99.99
2018-04-09T03:32:28.881Z,99.99
2018-04-09T03:33:28.898Z,99.99
2018-04-09T03:35:28.931Z,99.99
2018-04-09T03:36:28.693Z,99.99
2018-04-09T03:37:28.969Z,99.99
2018-04-09T03:38:28.990Z,99.99
2018-04-09T03:39:28.749Z,99.99
2018-04-09T03:40:29.028Z,99.99
2018-04-09T03:41:29.047Z,99.99
2018-04-09T03:42:29.063Z,99.99
2018-04-09T03:43:29.083Z,99.99
2018-04-09T03:44:29.106Z,99.99
2018-04-09T03:45:29.124Z,99.99
2018-04-09T03:46:43.798Z,99.99
2018-04-09T03:47:29.157Z,99.99
2018-04-09T03:49:28.937Z,99.99
2018-04-09T03:50:29.214Z,99.99
2018-04-09T03:51:29.233Z,99.99
2018-04-09T03:52:29.282Z,99.99
2018-04-09T03:54:29.030Z,99.99
2018-04-09T03:55:29.049Z,99.99
2018-04-09T03:56:29.327Z,99.99
2018-04-09T03:57:29.346Z,99.99
2018-04-09T03:58:29.559Z,99.99
2018-04-09T03:59:29.127Z,99.99
2018-04-09T04:00:29.408Z,99.99
2018-04-09T04:01:29.424Z,99.99
2018-04-09T04:02:44.098Z,99.99
2018-04-09T04:03:29.460Z,99.99
2018-04-09T04:04:29.477Z,99.99
2018-04-09T04:05:29.494Z,99.99
2018-04-09T04:06:29.519Z,99.99
2018-04-09T04:07:29.531Z,99.99
2018-04-09T04:08:29.550Z,99.99
2018-04-09T04:09:29.569Z,99.99
2018-04-09T04:10:29.591Z,99.99
2018-04-09T04:11:29.612Z,99.99
2018-04-09T04:13:29.647Z,99.99
2018-04-09T04:14:29.661Z,99.99
2018-04-09T04:15:29.682Z,99.99
2018-04-09T04:16:29.705Z,99.99
2018-04-09T04:17:44.379Z,99.99
2018-04-09T04:18:29.741Z,99.99
2018-04-09T04:19:29.756Z,99.99
2018-04-09T04:20:29.775Z,99.99
2018-04-09T04:21:29.799Z,99.99
2018-04-09T04:22:29.914Z,99.99
2018-04-09T04:23:29.876Z,99.99
2018-04-09T04:24:29.848Z,99.99
2018-04-09T04:25:29.869Z,99.99
2018-04-09T04:26:29.886Z,99.99
2018-04-09T04:27:29.905Z,99.99
2018-04-09T04:29:29.947Z,99.99
2018-04-09T04:30:29.960Z,99.99
2018-04-09T04:31:29.982Z,99.99
2018-04-09T04:32:29.998Z,99.99
2018-04-09T04:33:30.021Z,99.99
2018-04-09T04:34:30.039Z,99.99
2018-04-09T04:35:30.059Z,99.99
2018-04-09T04:36:30.073Z,99.99
2018-04-09T04:37:29.832Z,99.99
2018-04-09T04:38:30.110Z,99.99
2018-04-09T04:39:30.130Z,99.99
2018-04-09T04:40:30.150Z,99.99
2018-04-09T04:41:30.169Z,99.99
2018-04-09T04:42:30.185Z,99.99
2018-04-09T04:43:30.203Z,99.99
2018-04-09T04:44:30.227Z,99.99
2018-04-09T04:45:30.299Z,99.99
2018-04-09T04:46:30.264Z,99.99
2018-04-09T04:47:30.019Z,99.99
2018-04-09T04:48:30.039Z,99.99
2018-04-09T04:49:44.973Z,99.99
2018-04-09T04:50:30.334Z,99.99
2018-04-09T04:51:30.354Z,99.99
2018-04-09T04:52:30.374Z,99.99
2018-04-09T04:53:30.389Z,99.99
2018-04-09T04:54:30.416Z,99.99
2018-04-09T04:55:30.429Z,99.99
2018-04-09T04:56:30.451Z,99.99
2018-04-09T04:57:30.469Z,99.99
2018-04-09T04:58:30.485Z,99.99
2018-04-09T04:59:30.504Z,99.99
2018-04-09T05:00:30.524Z,99.99
2018-04-09T05:01:30.541Z,99.99
2018-04-09T05:02:30.568Z,99.99
2018-04-09T05:03:30.584Z,99.99
2018-04-09T05:04:30.600Z,99.99
2018-04-09T05:05:45.279Z,99.99
2018-04-09T05:06:30.640Z,99.99
2018-04-09T05:07:30.401Z,99.99
2018-04-09T05:08:30.680Z,99.99
2018-04-09T05:11:30.744Z,99.93
2018-04-09T05:12:30.768Z,99.99
2018-04-09T05:13:30.791Z,99.74
2018-04-09T05:14:30.802Z,99.99
2018-04-09T05:15:30.825Z,99.99
2018-04-09T05:16:30.845Z,99.99
2018-04-09T05:17:30.606Z,99.99
2018-04-09T05:18:30.884Z,99.99
2018-04-09T05:19:30.907Z,99.99
2018-04-09T05:20:30.925Z,99.99
2018-04-09T05:21:45.605Z,98.84
2018-04-09T05:22:30.708Z,97.79
2018-04-09T05:23:30.986Z,96.7
2018-04-09T05:24:31.008Z,96.51
2018-04-09T05:25:31.028Z,94.98
2018-04-09T05:26:31.050Z,93.6
2018-04-09T05:27:30.814Z,92.55
2018-04-09T05:29:31.125Z,90.79
2018-04-09T05:30:31.139Z,90.5
2018-04-09T05:31:31.159Z,90.41
2018-04-09T05:32:31.179Z,89.64
2018-04-09T05:33:31.202Z,89.83
2018-04-09T05:34:31.228Z,89.36
2018-04-09T05:35:31.251Z,88.88
2018-04-09T05:36:31.273Z,88.88
2018-04-09T05:37:45.952Z,87.87
2018-04-09T05:38:31.315Z,88.59
2018-04-09T05:39:31.342Z,87.83
2018-04-09T05:41:31.124Z,85.91
2018-04-09T05:42:31.406Z,85.05
2018-04-09T05:43:31.429Z,84.33
2018-04-09T05:44:31.464Z,83.57
2018-04-09T05:45:31.481Z,82.23
2018-04-09T05:46:31.531Z,81.6
2018-04-09T05:47:31.524Z,81.51
2018-04-09T05:48:31.560Z,80.93
2018-04-09T05:49:31.572Z,80.65
2018-04-09T05:50:31.606Z,80.07
2018-04-09T05:51:31.620Z,80.5
2018-04-09T05:52:46.307Z,79.69
2018-04-09T05:53:31.670Z,79.44
2018-04-09T05:54:31.694Z,78.3
2018-04-09T05:55:31.718Z,78.2
2018-04-09T05:56:31.743Z,77.44
2018-04-09T05:57:31.773Z,77.72
2018-04-09T05:58:31.793Z,77.25
2018-04-09T05:59:31.874Z,76.48
2018-04-09T06:00:31.844Z,75.47
2018-04-09T06:01:31.609Z,75.76
2018-04-09T06:02:31.894Z,75.12
2018-04-09T06:03:31.921Z,74.93
2018-04-09T06:04:31.946Z,74.4
2018-04-09T06:05:31.983Z,73.76
2018-04-09T06:06:32.002Z,72.42
2018-04-09T06:07:31.769Z,71.66
2018-04-09T06:08:32.052Z,70.35
2018-04-09T06:09:32.190Z,68.75
2018-04-09T06:10:32.104Z,68.27
2018-04-09T06:11:32.132Z,67.16
2018-04-09T06:12:32.158Z,66.19
2018-04-09T06:14:32.215Z,66.19
2018-04-09T06:15:32.244Z,65.91
2018-04-09T06:16:32.275Z,66.58
2018-04-09T06:17:32.039Z,64.5
2018-04-09T06:18:32.327Z,64.69
2018-04-09T06:19:32.355Z,64.56
2018-04-09T06:20:32.384Z,65.62
2018-04-09T06:21:32.416Z,65.72
2018-04-09T06:22:32.441Z,64.98
2018-04-09T06:23:32.481Z,64.82
2018-04-09T06:24:47.164Z,63.76
2018-04-09T06:25:32.531Z,63.28
2018-04-09T06:26:32.559Z,63.32
2018-04-09T06:27:32.591Z,61.87
2018-04-09T06:28:32.621Z,61.52
2018-04-09T06:29:32.651Z,61.01
2018-04-09T06:30:32.681Z,60.94
2018-04-09T06:31:32.712Z,60.43
2018-04-09T06:32:32.742Z,60.24
2018-04-09T06:33:32.510Z,60.27
2018-04-09T06:34:32.798Z,61.01
2018-04-09T06:35:32.831Z,59.6
2018-04-09T06:36:32.863Z,59.92
2018-04-09T06:37:32.632Z,59.41
2018-04-09T06:38:32.920Z,59.41
2018-04-09T06:39:32.957Z,59.6
2018-04-09T06:40:47.646Z,59.12
2018-04-09T06:41:33.016Z,59.15
2018-04-09T06:42:33.045Z,57.92
2018-04-09T06:43:32.820Z,57.35
2018-04-09T06:44:33.109Z,56.67
2018-04-09T06:46:33.172Z,56.12
2018-04-09T06:47:33.212Z,56.22
2018-04-09T06:48:33.236Z,55.26
2018-04-09T06:49:33.269Z,54.8
2018-04-09T06:51:33.072Z,54.13
2018-04-09T06:52:33.373Z,54.54
2018-04-09T06:53:33.394Z,53.77
2018-04-09T06:54:33.431Z,53.77
2018-04-09T06:55:33.464Z,53.77
2018-04-09T06:56:48.155Z,53.77
2018-04-09T06:57:33.268Z,53.48
2018-04-09T06:58:33.562Z,54.16
2018-04-09T07:00:33.623Z,52.81
2018-04-09T07:01:33.656Z,52.81
2018-04-09T07:03:33.722Z,52.45
2018-04-09T07:04:33.495Z,52.16
2018-04-09T07:05:33.787Z,51.48
2018-04-09T07:06:33.821Z,51.99
2018-04-09T07:07:33.854Z,51.61
2018-04-09T07:08:33.887Z,50.47
2018-04-09T07:09:33.922Z,50.28
2018-04-09T07:10:33.960Z,49.63
2018-04-09T07:11:33.997Z,49.15
2018-04-09T07:12:48.682Z,48.95
2018-04-09T07:13:34.053Z,49.34
2018-04-09T07:14:34.086Z,48.95
2018-04-09T07:15:34.119Z,48.79
2018-04-09T07:16:34.167Z,48.76
2018-04-09T07:17:34.190Z,49.34
2018-04-09T07:18:33.961Z,49.44
2018-04-09T07:19:34.254Z,49.44
2018-04-09T07:21:34.063Z,48.28
2018-04-09T07:22:34.356Z,49.51
2018-04-09T07:23:34.389Z,49.82
2018-04-09T07:24:34.165Z,48.18
2018-04-09T07:25:34.459Z,48.66
2018-04-09T07:26:34.545Z,47.81
2018-04-09T07:27:49.188Z,47.33
2018-04-09T07:28:34.565Z,47.36
2018-04-09T07:30:34.646Z,47.26
2018-04-09T07:31:34.662Z,46.97
2018-04-09T07:32:34.696Z,46.32
2018-04-09T07:33:34.739Z,46.32
2018-04-09T07:34:34.766Z,46.32
2018-04-09T07:35:34.798Z,46.7
2018-04-09T07:36:34.832Z,46.03
2018-04-09T07:37:34.917Z,45.64
2018-04-09T07:38:34.900Z,45.66
2018-04-09T07:39:34.986Z,45.37
2018-04-09T07:40:34.968Z,44.6
2018-04-09T07:41:35.001Z,44.57
2018-04-09T07:42:35.037Z,46.68
2018-04-09T07:43:35.071Z,47.91
2018-04-09T07:44:35.105Z,47.81
2018-04-09T07:45:35.140Z,46.49
2018-04-09T07:46:35.176Z,46.05
2018-04-09T07:47:35.214Z,45.45
2018-04-09T07:48:35.241Z,46.26
2018-04-09T07:49:35.275Z,44.72
2018-04-09T07:50:35.323Z,43.75
2018-04-09T07:51:35.084Z,44.23
2018-04-09T07:52:35.384Z,43.82
2018-04-09T07:53:35.414Z,43.92
2018-04-09T07:54:35.447Z,43.73
2018-04-09T07:55:35.487Z,43.95
2018-04-09T07:56:35.514Z,43.58
2018-04-09T07:57:35.289Z,42.82
2018-04-09T07:58:35.585Z,43.31
2018-04-09T07:59:50.278Z,43.29
2018-04-09T08:00:35.701Z,43.52
2018-04-09T08:01:35.427Z,42.44
2018-04-09T08:02:35.719Z,41.78
2018-04-09T08:03:35.752Z,41.68
2018-04-09T08:04:35.528Z,42.63
2018-04-09T08:06:35.855Z,41.88
2018-04-09T08:07:35.900Z,41.22
2018-04-09T08:08:35.664Z,41.78
2018-04-09T08:09:35.959Z,40.99
2018-04-09T08:10:35.989Z,42.07
2018-04-09T08:11:35.766Z,41.3
2018-04-09T08:12:35.798Z,41.76
2018-04-09T08:13:36.092Z,42.63
2018-04-09T08:14:36.127Z,41.22
2018-04-09T08:15:50.822Z,41.68
2018-04-09T08:16:36.193Z,41.2
2018-04-09T08:17:35.968Z,41.61
2018-04-09T08:18:36.260Z,40.25
2018-04-09T08:19:36.308Z,41.2
2018-04-09T08:20:36.329Z,41.74
2018-04-09T08:22:36.399Z,43.37
2018-04-09T08:23:36.436Z,42.51
2018-04-09T08:24:36.203Z,42.44
2018-04-09T08:25:36.495Z,41.58
2018-04-09T08:26:36.531Z,41
2018-04-09T08:27:36.566Z,41.1
2018-04-09T08:28:36.602Z,40.83
2018-04-09T08:29:36.672Z,40.44
2018-04-09T08:30:36.663Z,40.54
2018-04-09T08:31:51.358Z,39.76
2018-04-09T08:32:36.471Z,40.23
2018-04-09T08:34:36.797Z,41.17
2018-04-09T08:35:36.829Z,41.45
2018-04-09T08:36:36.867Z,41.66
2018-04-09T08:37:36.899Z,41.08
2018-04-09T08:38:36.928Z,40.52
2018-04-09T08:39:36.966Z,40.13
2018-04-09T08:40:36.742Z,40.79
2018-04-09T08:41:37.028Z,41.76
2018-04-09T08:42:37.062Z,40.5
2018-04-09T08:43:37.094Z,40.38
2018-04-09T08:44:37.127Z,40.69
2018-04-09T08:45:37.161Z,39.84
2018-04-09T08:46:37.193Z,39.55
2018-04-09T08:47:51.888Z,38.71
2018-04-09T08:48:37.260Z,38.15
2018-04-09T08:49:37.035Z,38.44
2018-04-09T08:50:37.326Z,38.83
2018-04-09T08:51:37.358Z,38.32
2018-04-09T08:52:37.391Z,37.74
2018-04-09T08:53:37.165Z,38.42
2018-04-09T08:54:37.456Z,38.06
2018-04-09T08:55:37.576Z,37.3
2018-04-09T08:56:37.531Z,38.27
2018-04-09T08:57:37.559Z,39.7
2018-04-09T08:58:37.587Z,37.86
2018-04-09T08:59:37.621Z,38.54
2018-04-09T09:00:37.656Z,37.94
2018-04-09T09:01:37.441Z,38.91
2018-04-09T09:02:52.385Z,38.52
2018-04-09T09:03:37.761Z,38.06
2018-04-09T09:04:37.786Z,37.76
2018-04-09T09:05:37.821Z,37.86
2018-04-09T09:06:37.859Z,38.32
2018-04-09T09:07:37.886Z,38.54
2018-04-09T09:08:37.921Z,38.04
2018-04-09T09:09:37.956Z,36.69
2018-04-09T09:10:37.985Z,37.76
2018-04-09T09:11:38.016Z,38.32
2018-04-09T09:12:38.056Z,37.88
2018-04-09T09:13:37.826Z,36.93
2018-04-09T09:14:38.115Z,37.01
2018-04-09T09:15:38.147Z,36.93
2018-04-09T09:16:38.180Z,37.57
2018-04-09T09:17:38.219Z,38.21
2018-04-09T09:18:38.247Z,39.18
2018-04-09T09:19:38.285Z,38.31
2018-04-09T09:20:38.311Z,39.72
2018-04-09T09:21:38.086Z,39.72
2018-04-09T09:22:38.124Z,39.9
2018-04-09T09:23:38.409Z,39.72
2018-04-09T09:26:38.507Z,40.21
2018-04-09T09:27:38.542Z,40.42
2018-04-09T09:29:38.344Z,40.42
2018-04-09T09:30:38.635Z,40.42
2018-04-09T09:31:38.669Z,39.18
2018-04-09T09:32:38.753Z,38.62
2018-04-09T09:33:38.732Z,38.34
2018-04-09T09:34:53.430Z,38.06
2018-04-09T09:35:38.796Z,38.04
2018-04-09T09:36:38.573Z,37.94
2018-04-09T09:37:38.935Z,38.02
2018-04-09T09:38:38.900Z,38.48
2018-04-09T09:39:38.926Z,38.78
2018-04-09T09:40:38.958Z,39.04
2018-04-09T09:41:38.729Z,38.96
2018-04-09T09:42:39.026Z,38.76
2018-04-09T09:43:39.052Z,39.43
2018-04-09T09:44:39.084Z,40.19
2018-04-09T09:45:39.115Z,41.17
2018-04-09T09:46:39.151Z,39.82
2018-04-09T09:47:38.921Z,40.33
2018-04-09T09:48:39.211Z,39.18
2018-04-09T09:49:39.242Z,38.62
2018-04-09T09:50:53.941Z,39.49
2018-04-09T09:51:39.306Z,37.98
2018-04-09T09:52:39.338Z,37.1
2018-04-09T09:53:39.371Z,37.88
2018-04-09T09:54:39.404Z,37.88
2018-04-09T09:55:39.174Z,37.47
2018-04-09T09:56:39.207Z,37.94
2018-04-09T09:58:39.540Z,38.81
2018-04-09T09:59:39.560Z,39.12
2018-04-09T10:00:39.593Z,37.01
2018-04-09T10:01:39.647Z,37.41
2018-04-09T10:02:39.656Z,37.88
2018-04-09T10:03:39.690Z,38.06
2018-04-09T10:04:39.720Z,37.26
2018-04-09T10:05:39.751Z,38.42
2018-04-09T10:06:54.443Z,39.37
2018-04-09T10:07:39.894Z,40.17
2018-04-09T10:08:39.586Z,38.91
2018-04-09T10:09:39.877Z,38.06
2018-04-09T10:11:39.681Z,38.83
2018-04-09T10:12:39.712Z,40
2018-04-09T10:14:40.035Z,38.13
2018-04-09T10:15:40.068Z,39.78
2018-04-09T10:16:40.099Z,39.2
2018-04-09T10:17:40.130Z,38.91
2018-04-09T10:18:40.166Z,38.13
2018-04-09T10:19:40.190Z,38.7
2018-04-09T10:20:40.222Z,37.63
2018-04-09T10:21:40.261Z,39.95
2018-04-09T10:22:54.945Z,39.06
2018-04-09T10:23:40.322Z,39.04
2018-04-09T10:24:40.346Z,39.8
2018-04-09T10:25:40.375Z,40.5
2018-04-09T10:26:40.408Z,40.77
2018-04-09T10:27:40.180Z,42
2018-04-09T10:30:40.285Z,42.65
2018-04-09T10:32:40.592Z,42.91
2018-04-09T10:33:40.637Z,43.28
2018-04-09T10:34:40.654Z,44.12
2018-04-09T10:35:40.776Z,44.7
2018-04-09T10:36:40.716Z,45.09
2018-04-09T10:37:55.406Z,46.06
2018-04-09T10:38:40.774Z,46.15
2018-04-09T10:39:40.805Z,45.18
2018-04-09T10:40:40.835Z,45.21
2018-04-09T10:41:40.607Z,43.76
2018-04-09T10:42:40.895Z,44.03
2018-04-09T10:44:40.959Z,45.09
2018-04-09T10:48:41.069Z,45
2018-04-09T10:49:41.168Z,45.17
2018-04-09T10:50:41.126Z,44.51
2018-04-09T10:51:41.156Z,46.64
2018-04-09T10:52:40.926Z,46.06
2018-04-09T10:53:41.215Z,44.43
2018-04-09T10:54:41.291Z,44.15
2018-04-09T10:56:41.050Z,43.01
2018-04-09T10:58:41.356Z,43.64
2018-04-09T10:59:41.387Z,44.59
2018-04-09T11:01:41.442Z,43.64
2018-04-09T11:02:41.468Z,45.96
2018-04-09T11:03:41.509Z,45.09
2018-04-09T11:04:41.525Z,44.6
2018-04-09T11:05:41.557Z,44.6
2018-04-09T11:06:41.583Z,44.32
2018-04-09T11:07:41.610Z,44.15
2018-04-09T11:08:41.637Z,44.34
2018-04-09T11:09:56.326Z,44.42
2018-04-09T11:10:41.693Z,44.53
2018-04-09T11:11:41.479Z,45.31
2018-04-09T11:12:41.489Z,44.63
2018-04-09T11:13:41.575Z,44.82
2018-04-09T11:14:41.808Z,43.49
2018-04-09T11:15:41.832Z,43.68
2018-04-09T11:16:41.861Z,43.3
2018-04-09T11:17:41.891Z,43.1
2018-04-09T11:18:41.656Z,44.17
2018-04-09T11:19:41.994Z,43.85
2018-04-09T11:20:41.973Z,44.43
2018-04-09T11:21:41.741Z,44.24
2018-04-09T11:22:42.026Z,44.15
2018-04-09T11:23:41.794Z,44.05
2018-04-09T11:24:42.083Z,45.59
2018-04-09T11:25:56.769Z,47.53
2018-04-09T11:26:42.150Z,46.88
2018-04-09T11:27:41.904Z,46.49
2018-04-09T11:28:42.194Z,45.23
2018-04-09T11:29:42.221Z,44.17
2018-04-09T11:30:42.245Z,44.84
2018-04-09T11:31:42.013Z,44.75
2018-04-09T11:33:42.329Z,44.05
2018-04-09T11:34:42.354Z,44.63
2018-04-09T11:35:42.386Z,44.53
2018-04-09T11:36:42.413Z,44.43
2018-04-09T11:37:42.441Z,45.01
2018-04-09T11:38:42.467Z,44.34
2018-04-09T11:39:42.497Z,45.01
2018-04-09T11:40:42.523Z,44.24
2018-04-09T11:41:57.210Z,45
2018-04-09T11:42:42.579Z,44.73
2018-04-09T11:43:42.602Z,45.4
2018-04-09T11:44:42.630Z,45.57
2018-04-09T11:45:42.400Z,45.38
2018-04-09T11:46:42.433Z,45.96
2018-04-09T11:47:42.712Z,45.96
2018-04-09T11:48:42.741Z,45
2018-04-09T11:49:42.763Z,45.79
2018-04-09T11:50:42.795Z,45.4
2018-04-09T11:51:42.820Z,46.08
2018-04-09T11:53:42.872Z,45.11
2018-04-09T11:54:42.642Z,45.01
2018-04-09T11:55:42.929Z,45.14
2018-04-09T11:56:42.958Z,44.26
2018-04-09T11:58:43.011Z,44.36
2018-04-09T11:59:43.034Z,46.39
2018-04-09T12:00:43.060Z,44.56
2018-04-09T12:01:43.089Z,44.36
2018-04-09T12:02:42.857Z,45.04
2018-04-09T12:03:42.883Z,44.36
2018-04-09T12:04:43.171Z,44.46
2018-04-09T12:06:43.220Z,45.62
2018-04-09T12:07:43.250Z,45.23
2018-04-09T12:08:43.280Z,45.14
2018-04-09T12:09:43.302Z,44.94
2018-04-09T12:10:43.334Z,45.04
2018-04-09T12:11:43.360Z,46.47
2018-04-09T12:12:58.047Z,45.81
2018-04-09T12:13:43.155Z,45.23
2018-04-09T12:14:43.441Z,45.14
2018-04-09T12:15:43.510Z,45.81
2018-04-09T12:16:43.498Z,45.62
2018-04-09T12:17:43.519Z,45.33
2018-04-09T12:18:43.545Z,46.2
2018-04-09T12:19:43.318Z,46.39
2018-04-09T12:20:43.344Z,45.14
2018-04-09T12:21:43.625Z,46.1
2018-04-09T12:22:43.721Z,46.3
2018-04-09T12:23:43.429Z,45.04
2018-04-09T12:24:43.714Z,44.94
2018-04-09T12:25:43.736Z,46.49
2018-04-09T12:26:43.763Z,45.04
2018-04-09T12:27:43.789Z,44.56
2018-04-09T12:28:43.903Z,43.68
2018-04-09T12:29:43.844Z,43.78
2018-04-09T12:30:43.869Z,43.76
2018-04-09T12:31:43.638Z,44.43
2018-04-09T12:32:43.669Z,45.21
2018-04-09T12:33:43.692Z,44.24
2018-04-09T12:34:43.977Z,45.09
2018-04-09T12:35:44.007Z,45.48
2018-04-09T12:36:43.771Z,44.8
2018-04-09T12:37:44.058Z,44.9
2018-04-09T12:38:44.083Z,44.9
2018-04-09T12:39:44.127Z,45.76
2018-04-09T12:40:44.138Z,45.11
2018-04-09T12:41:43.908Z,45.31
2018-04-09T12:42:44.193Z,45.5
2018-04-09T12:43:43.959Z,45.11
2018-04-09T12:44:58.905Z,44.73
2018-04-09T12:45:44.042Z,43.66
2018-04-09T12:46:44.296Z,44.12
2018-04-09T12:47:44.322Z,44.63
2018-04-09T12:48:44.349Z,44.7
2018-04-09T12:49:44.119Z,45.28
2018-04-09T12:50:44.146Z,45.36
2018-04-09T12:51:44.429Z,46.03
2018-04-09T12:54:44.509Z,46.06
2018-04-09T12:55:44.537Z,45.38
2018-04-09T12:56:44.562Z,45.57
2018-04-09T12:57:50.594Z,45.67
2018-04-09T12:58:44.609Z,45.4
2018-04-09T12:59:44.636Z,45.31
2018-04-09T13:01:44.690Z,45.59
2018-04-09T13:02:44.460Z,45.01
2018-04-09T13:03:44.741Z,44.34
2018-04-09T13:04:44.511Z,45.11
2018-04-09T13:05:44.541Z,45.11
2018-04-09T13:06:44.821Z,44.63
2018-04-09T13:07:44.602Z,46.66
2018-04-09T13:08:44.876Z,47.05
2018-04-09T13:09:44.649Z,46.27
2018-04-09T13:10:44.927Z,47.16
2018-04-09T13:11:44.696Z,46.88
2018-04-09T13:12:44.980Z,46.66
2018-04-09T13:13:45.007Z,46.97
2018-04-09T13:14:45.034Z,46
2018-04-09T13:15:45.064Z,45.14
2018-04-09T13:16:59.750Z,44.26
2018-04-09T13:17:45.114Z,44.75
2018-04-09T13:18:45.141Z,43.98
2018-04-09T13:19:45.169Z,45.59
2018-04-09T13:20:44.936Z,46.27
2018-04-09T13:21:45.251Z,46.58
2018-04-09T13:22:45.265Z,45.91
2018-04-09T13:23:45.273Z,45.33
2018-04-09T13:25:45.329Z,44.75
2018-04-09T13:26:45.353Z,46.2
2018-04-09T13:27:45.378Z,47.65
2018-04-09T13:28:45.412Z,46.68
2018-04-09T13:29:45.432Z,45.23
2018-04-09T13:30:45.462Z,44.75
2018-04-09T13:31:45.521Z,45.21
2018-04-09T13:33:00.174Z,45.98
2018-04-09T13:33:45.281Z,45.4
2018-04-09T13:34:45.569Z,45.89
2018-04-09T13:35:45.379Z,46.39
2018-04-09T13:36:45.619Z,44.84
2018-04-09T13:37:45.643Z,46.2
2018-04-09T13:38:45.670Z,46
2018-04-09T13:39:45.439Z,45.72
2018-04-09T13:40:45.727Z,46.97
2018-04-09T13:42:45.777Z,46.12
2018-04-09T13:43:45.803Z,45.16
2018-04-09T13:44:45.829Z,45.74
2018-04-09T13:45:45.859Z,46.7
2018-04-09T13:46:45.886Z,45.83
2018-04-09T13:48:00.573Z,45.72
2018-04-09T13:48:45.937Z,45.45
2018-04-09T13:49:45.963Z,45.45
2018-04-09T13:50:45.990Z,45.16